Airfield :
LOGIN :

Register | Disclaimer

   EN    FR    IT 

 










Legend :    VFR   Marginal VFR   IFR   Intensive IFR   Very Intensive IFR
Visi :
Ceiling :
>= 8 km
>= 3000ft
5 to 8 km
1000 to 3000 ft
1500m to 5 km
500 to 1000 ft
800 to 1500m
200 to 500 ft
< 800m
< 200 ft
Symbols :   Thunderstorms  Fog  Heavy snow  Heavy precipitations  Wind > 20 kt
SIGMETs :     Misc.  Thunderstorms  Icing  Turbulence  Mountain Waves  Volcanic Ashes






- Airport Elevation : 776 ft
- IATA code : RMS


ETAR - Ramstein Air Base

CURRENT METAR :
  • 071555Z AUTO 00000KT 9999 CLR 17/10 A3013 RMK AO2 SLP209 T01710100 $

EXPIRED METARs :
  • 071455Z AUTO 24005KT 9999 CLR 18/10 A3014 RMK AO2 SLP214 T01820095 57027 $
  • 071355Z AUTO 20005KT 9999 CLR 18/09 A3016 RMK AO2 SLP219 T01790090 $

TAF TAF ETAR
Valid from the 07 at 10:00 until the 08 at 16:00 UTC


071000Z 0710/0816 23009KT 9999 SCT025 QNH3014INS
BECMG 0717/0718 25009KT 9999 BKN020 QNH3011INS
BECMG 0723/0724 VRB06KT 5000 BR FEW015 QNH3009INS
TEMPO 0803/0807 0800 BCFG FEW005
BECMG 0809/0810 24010G20KT 9000 -SHRA BKN020 QNH3018INS TX19/0714Z TN06/0806Z



MET'MAP, your aeronautical weather chart ! - Copyright ORBIFLY December 2007 - Disclaimer

ORBIFLY MET'MAP TEAM :

Programming & Development : Alexandra Zaïnal
Original concept : Baudouin d'Aumeries
Technical & hardware support : Manuel Goepfert
Assistance : Marc-Olivier Méhu




SOURCES & CREDITS :

   NOAA